createdAt,value
2023-02-01T00:01:52.526Z,2.20
2023-02-01T00:04:22.132Z,1.90
2023-02-01T00:06:51.608Z,2.00
2023-02-01T00:09:21.350Z,1.57
2023-02-01T00:11:50.781Z,1.67
2023-02-01T00:14:20.291Z,1.70
2023-02-01T00:16:49.824Z,1.70
2023-02-01T00:19:19.278Z,2.53
2023-02-01T00:21:48.739Z,1.77
2023-02-01T00:24:18.183Z,1.77
2023-02-01T00:26:49.198Z,1.40
2023-02-01T00:29:21.874Z,1.50
2023-02-01T00:31:53.764Z,1.10
2023-02-01T00:34:23.332Z,1.73
2023-02-01T00:36:52.853Z,1.50
2023-02-01T00:39:22.303Z,1.03
2023-02-01T00:41:51.745Z,1.53
2023-02-01T00:44:21.187Z,0.97
2023-02-01T00:46:50.776Z,0.70
2023-02-01T00:49:20.239Z,1.07
2023-02-01T00:51:49.687Z,1.00
2023-02-01T00:54:19.193Z,1.17
2023-02-01T00:56:48.658Z,1.20
2023-02-01T00:59:18.157Z,1.00
2023-02-01T01:01:47.670Z,1.13
2023-02-01T01:04:17.488Z,0.80
2023-02-01T01:06:47.353Z,0.77
2023-02-01T01:09:16.794Z,0.97
2023-02-01T01:11:46.705Z,1.03
2023-02-01T01:14:16.153Z,1.03
2023-02-01T01:16:45.600Z,1.63
2023-02-01T01:19:15.057Z,1.00
2023-02-01T01:21:44.518Z,0.85
2023-02-01T01:24:14.024Z,0.93
2023-02-01T01:26:43.520Z,1.47
2023-02-01T01:29:13.022Z,0.97
2023-02-01T01:31:42.527Z,1.20
2023-02-01T01:34:12.027Z,0.83
2023-02-01T01:36:41.466Z,1.20
2023-02-01T01:39:10.909Z,1.20
2023-02-01T01:41:40.405Z,1.30
2023-02-01T01:44:39.697Z,1.20
2023-02-01T01:47:09.211Z,1.07
2023-02-01T01:49:39.373Z,1.07
2023-02-01T01:52:09.964Z,0.93
2023-02-01T01:54:46.932Z,1.77
2023-02-01T01:57:32.290Z,1.63
2023-02-01T02:00:15.110Z,0.80
2023-02-01T02:02:49.032Z,1.30
2023-02-01T02:05:40.476Z,0.83
2023-02-01T02:08:09.930Z,1.10
2023-02-01T02:10:58.090Z,1.13
2023-02-01T02:13:43.296Z,1.00
2023-02-01T02:16:27.471Z,1.57
2023-02-01T02:19:32.972Z,1.47
2023-02-01T02:22:25.155Z,1.40
2023-02-01T02:25:37.344Z,1.20
2023-02-01T02:28:46.130Z,0.93
2023-02-01T02:31:39.675Z,1.60
2023-02-01T02:34:22.861Z,1.03
2023-02-01T02:37:03.016Z,1.10
2023-02-01T02:39:53.824Z,1.10
2023-02-01T02:42:58.544Z,1.27
2023-02-01T02:46:01.581Z,1.63
2023-02-01T02:49:00.797Z,1.00
2023-02-01T02:52:01.311Z,1.00
2023-02-01T02:54:47.466Z,1.07
2023-02-01T02:57:41.736Z,1.60
2023-02-01T03:00:33.318Z,1.53
2023-02-01T03:03:21.743Z,1.90
2023-02-01T03:05:53.122Z,0.70
2023-02-01T03:08:32.280Z,1.20
2023-02-01T03:11:12.389Z,1.00
2023-02-01T03:13:54.996Z,1.00
2023-02-01T03:16:32.553Z,1.00
2023-02-01T03:19:23.872Z,1.30
2023-02-01T03:22:10.288Z,1.63
2023-02-01T03:24:58.900Z,1.20
2023-02-01T03:27:37.897Z,1.03
2023-02-01T03:30:21.049Z,1.07
2023-02-01T03:33:00.674Z,0.70
2023-02-01T03:35:52.046Z,1.03
2023-02-01T03:38:44.126Z,0.90
2023-02-01T03:41:39.351Z,1.07
2023-02-01T03:44:29.019Z,1.33
2023-02-01T03:47:19.593Z,0.93
2023-02-01T03:49:56.566Z,1.10
2023-02-01T03:52:33.530Z,0.90
2023-02-01T03:55:04.186Z,0.90
2023-02-01T03:57:40.756Z,1.00
2023-02-01T04:00:23.952Z,1.40
2023-02-01T04:02:55.213Z,1.20
2023-02-01T04:05:25.389Z,1.40
2023-02-01T04:07:55.242Z,1.33
2023-02-01T04:10:25.045Z,1.10
2023-02-01T04:12:54.954Z,1.10
2023-02-01T04:15:24.466Z,1.20
2023-02-01T04:17:53.919Z,1.30
2023-02-01T04:20:23.715Z,1.60
2023-02-01T04:22:53.387Z,1.47
2023-02-01T04:25:23.063Z,0.73
2023-02-01T04:27:52.508Z,1.00
2023-02-01T04:30:22.372Z,1.13
2023-02-01T04:32:52.047Z,0.97
2023-02-01T04:35:21.479Z,1.03
2023-02-01T04:37:50.921Z,1.33
2023-02-01T04:40:20.471Z,1.70
2023-02-01T04:42:49.996Z,1.60
2023-02-01T04:45:19.490Z,1.23
2023-02-01T04:47:49.751Z,1.10
2023-02-01T04:50:19.349Z,1.67
2023-02-01T04:52:48.793Z,0.83
2023-02-01T04:55:18.302Z,1.00
2023-02-01T04:57:47.794Z,0.87
2023-02-01T05:00:17.866Z,0.93
2023-02-01T05:02:47.380Z,1.40
2023-02-01T05:05:16.884Z,1.00
2023-02-01T05:07:47.897Z,1.50
2023-02-01T05:10:17.480Z,1.73
2023-02-01T05:13:05.037Z,1.50
2023-02-01T05:15:34.763Z,0.93
2023-02-01T05:18:04.286Z,1.30
2023-02-01T05:20:33.723Z,1.60
2023-02-01T05:23:03.184Z,1.03
2023-02-01T05:25:32.627Z,0.70
2023-02-01T05:28:02.076Z,0.83
2023-02-01T05:30:33.242Z,1.47
2023-02-01T05:33:03.142Z,1.30
2023-02-01T05:35:33.018Z,1.37
2023-02-01T05:38:02.486Z,1.30
2023-02-01T05:40:31.906Z,1.30
2023-02-01T05:43:01.367Z,1.50
2023-02-01T05:45:30.818Z,2.03
2023-02-01T05:48:00.359Z,1.47
2023-02-01T05:50:29.791Z,1.03
2023-02-01T05:52:59.251Z,1.40
2023-02-01T05:55:28.698Z,0.97
2023-02-01T05:57:58.169Z,1.60
2023-02-01T06:00:27.964Z,1.20
2023-02-01T06:02:57.825Z,1.80
2023-02-01T06:05:27.271Z,1.43
2023-02-01T06:07:57.286Z,0.90
2023-02-01T06:10:26.860Z,0.97
2023-02-01T06:12:56.321Z,1.37
2023-02-01T06:15:25.750Z,1.27
2023-02-01T06:17:55.779Z,1.87
2023-02-01T06:20:25.558Z,1.10
2023-02-01T06:22:55.134Z,1.50
2023-02-01T06:25:24.556Z,1.33
2023-02-01T06:27:54.017Z,1.43
2023-02-01T06:30:23.874Z,1.10
2023-02-01T06:32:57.056Z,1.30
2023-02-01T06:35:27.175Z,1.30
2023-02-01T06:37:58.339Z,1.40
2023-02-01T06:40:27.761Z,1.10
2023-02-01T06:42:58.184Z,1.33
2023-02-01T06:45:27.619Z,1.17
2023-02-01T06:47:57.147Z,1.10
2023-02-01T06:50:26.575Z,0.80
2023-02-01T06:52:56.719Z,1.43
2023-02-01T06:55:26.147Z,1.60
2023-02-01T06:57:58.916Z,1.60
2023-02-01T07:00:28.544Z,1.80
2023-02-01T07:03:01.262Z,1.93
2023-02-01T07:05:30.711Z,2.00
2023-02-01T07:08:00.225Z,1.10
2023-02-01T07:10:29.670Z,0.90
2023-02-01T07:13:02.144Z,1.10
2023-02-01T07:15:31.576Z,1.80
2023-02-01T07:18:01.026Z,1.33
2023-02-01T07:20:30.470Z,1.30
2023-02-01T07:23:00.471Z,1.07
2023-02-01T07:25:29.910Z,1.30
2023-02-01T07:27:59.726Z,1.17
2023-02-01T07:30:29.199Z,1.20
2023-02-01T07:33:00.340Z,1.80
2023-02-01T07:35:31.062Z,1.40
2023-02-01T07:38:00.881Z,1.40
2023-02-01T07:40:31.371Z,1.07
2023-02-01T07:43:00.896Z,1.77
2023-02-01T07:45:30.372Z,0.90
2023-02-01T07:47:59.963Z,1.27
2023-02-01T07:50:29.477Z,1.10
2023-02-01T07:53:01.710Z,0.97
2023-02-01T07:55:52.007Z,1.50
2023-02-01T07:58:21.455Z,0.83
2023-02-01T08:01:08.852Z,1.00
2023-02-01T08:03:38.817Z,1.20
2023-02-01T08:06:09.202Z,1.00
2023-02-01T08:08:39.113Z,1.00
2023-02-01T08:11:09.738Z,1.27
2023-02-01T08:13:39.276Z,1.30
2023-02-01T08:16:11.661Z,0.97
2023-02-01T08:18:42.685Z,0.73
2023-02-01T08:21:19.485Z,1.03
2023-02-01T08:23:49.815Z,0.80
2023-02-01T08:26:25.086Z,0.80
2023-02-01T08:29:02.696Z,1.57
2023-02-01T08:31:33.237Z,1.20
2023-02-01T08:34:05.361Z,0.87
2023-02-01T08:36:34.876Z,1.27
2023-02-01T08:39:06.624Z,1.10
2023-02-01T08:41:36.229Z,1.30
2023-02-01T08:44:06.010Z,0.73
2023-02-01T08:46:35.462Z,1.10
2023-02-01T08:49:04.883Z,0.83
2023-02-01T08:51:34.353Z,0.73
2023-02-01T08:54:03.813Z,0.80
2023-02-01T08:56:33.368Z,0.73
2023-02-01T08:59:02.895Z,0.70
2023-02-01T09:01:32.411Z,0.60
2023-02-01T09:04:01.894Z,0.70
2023-02-01T09:06:31.367Z,0.60
2023-02-01T09:09:00.820Z,0.70
2023-02-01T09:11:30.254Z,0.70
2023-02-01T09:13:59.805Z,0.50
2023-02-01T09:16:29.678Z,0.53
2023-02-01T09:19:23.911Z,0.60
2023-02-01T09:21:31.388Z,0.70
2023-02-01T09:24:01.187Z,0.50
2023-02-01T09:26:32.449Z,0.40
2023-02-01T09:29:04.402Z,0.67
2023-02-01T09:31:34.349Z,0.70
2023-02-01T09:34:04.101Z,0.40
2023-02-01T09:36:34.066Z,0.50
2023-02-01T09:39:04.744Z,0.40
2023-02-01T09:42:20.275Z,0.50
2023-02-01T09:45:12.619Z,0.60
2023-02-01T09:47:46.686Z,0.87
2023-02-01T09:50:21.972Z,0.60
2023-02-01T09:53:08.943Z,0.50
2023-02-01T09:55:48.980Z,0.40
2023-02-01T09:58:28.149Z,0.60
2023-02-01T10:01:04.348Z,0.37
2023-02-01T10:03:38.747Z,0.60
2023-02-01T10:06:21.977Z,0.80
2023-02-01T10:09:18.486Z,0.60
2023-02-01T10:11:58.195Z,0.77
2023-02-01T10:14:56.194Z,0.50
2023-02-01T10:17:46.871Z,0.60
2023-02-01T10:20:29.802Z,0.60
2023-02-01T10:23:32.587Z,0.60
2023-02-01T10:25:56.966Z,0.70
2023-02-01T10:28:27.785Z,0.37
2023-02-01T10:31:00.732Z,0.90
2023-02-01T10:33:40.719Z,0.77
2023-02-01T10:36:31.537Z,1.17
2023-02-01T10:39:02.017Z,1.40
2023-02-01T10:41:41.617Z,1.27
2023-02-01T10:44:21.379Z,1.17
2023-02-01T10:46:51.554Z,0.83
2023-02-01T10:49:43.631Z,0.90
2023-02-01T10:52:20.641Z,1.10
2023-02-01T10:54:50.426Z,1.23
2023-02-01T10:57:30.077Z,1.20
2023-02-01T10:59:59.719Z,0.80
2023-02-01T11:02:37.885Z,1.00
2023-02-01T11:05:13.429Z,1.00
2023-02-01T11:07:51.066Z,1.30
2023-02-01T11:10:40.093Z,1.63
2023-02-01T11:13:18.547Z,1.40
2023-02-01T11:15:51.704Z,1.90
2023-02-01T11:18:28.600Z,1.70
2023-02-01T11:20:58.866Z,1.00
2023-02-01T11:23:34.385Z,1.30
2023-02-01T11:26:13.920Z,1.40
2023-02-01T11:28:47.999Z,0.80
2023-02-01T11:31:17.801Z,0.90
2023-02-01T11:33:52.146Z,1.00
2023-02-01T11:36:28.756Z,1.30
2023-02-01T11:39:23.615Z,1.60
2023-02-01T11:42:17.926Z,1.23
2023-02-01T11:44:49.982Z,1.00
2023-02-01T11:47:42.752Z,1.60
2023-02-01T11:50:19.684Z,1.10
2023-02-01T11:53:05.460Z,0.70
2023-02-01T11:56:23.474Z,0.90
2023-02-01T11:58:57.526Z,1.63
2023-02-01T12:01:50.887Z,1.00
2023-02-01T12:04:54.929Z,1.50
2023-02-01T12:07:51.517Z,0.77
2023-02-01T12:10:31.329Z,1.40
2023-02-01T12:13:34.839Z,0.70
2023-02-01T12:16:35.203Z,1.07
2023-02-01T12:19:14.893Z,1.17
2023-02-01T12:21:54.553Z,1.13
2023-02-01T12:24:34.868Z,1.23
2023-02-01T12:27:32.530Z,1.03
2023-02-01T12:30:24.605Z,1.10
2023-02-01T12:33:21.515Z,1.00
2023-02-01T12:36:21.197Z,0.83
2023-02-01T12:39:23.677Z,1.47
2023-02-01T12:42:06.715Z,1.20
2023-02-01T12:44:49.619Z,1.10
2023-02-01T12:47:28.891Z,0.80
2023-02-01T12:50:05.778Z,0.70
2023-02-01T12:52:48.736Z,0.87
2023-02-01T12:55:28.678Z,1.10
2023-02-01T12:58:17.773Z,1.20
2023-02-01T13:01:06.389Z,0.80
2023-02-01T13:03:57.728Z,0.73
2023-02-01T13:06:37.721Z,1.10
2023-02-01T13:09:17.714Z,1.10
2023-02-01T13:11:48.734Z,1.00
2023-02-01T13:14:40.671Z,1.00
2023-02-01T13:17:25.597Z,0.97
2023-02-01T13:20:08.320Z,0.90
2023-02-01T13:22:45.855Z,0.90
2023-02-01T13:25:25.858Z,0.67
2023-02-01T13:28:06.113Z,0.80
2023-02-01T13:31:21.012Z,0.80
2023-02-01T13:34:37.536Z,1.20
2023-02-01T13:37:32.365Z,1.03
2023-02-01T13:40:34.540Z,1.00
2023-02-01T13:43:08.595Z,0.77
2023-02-01T13:45:45.707Z,1.20
2023-02-01T13:48:22.772Z,1.13
2023-02-01T13:50:59.678Z,0.67
2023-02-01T13:53:41.949Z,0.83
2023-02-01T13:56:25.005Z,1.13
2023-02-01T13:58:54.454Z,1.00
2023-02-01T14:01:31.235Z,0.90
2023-02-01T14:04:04.986Z,1.10
2023-02-01T14:06:41.803Z,1.20
2023-02-01T14:09:17.762Z,0.90
2023-02-01T14:11:58.746Z,0.50
2023-02-01T14:14:32.989Z,1.17
2023-02-01T14:17:07.024Z,0.90
2023-02-01T14:19:37.479Z,1.00
2023-02-01T14:22:35.761Z,1.20
2023-02-01T14:25:05.435Z,0.77
2023-02-01T14:27:37.982Z,0.83
2023-02-01T14:30:16.529Z,1.17
2023-02-01T14:32:47.712Z,0.83
2023-02-01T14:35:30.269Z,1.23
2023-02-01T14:38:05.063Z,0.80
2023-02-01T14:40:36.233Z,1.00
2023-02-01T14:43:05.730Z,0.90
2023-02-01T14:45:40.971Z,0.73
2023-02-01T14:48:15.002Z,1.30
2023-02-01T14:50:51.522Z,1.30
2023-02-01T14:53:28.562Z,1.40
2023-02-01T14:56:12.772Z,1.40
2023-02-01T14:59:01.036Z,0.83
2023-02-01T15:01:38.809Z,0.90
2023-02-01T15:04:19.652Z,0.70
2023-02-01T15:06:59.257Z,0.47
2023-02-01T15:09:33.249Z,0.60
2023-02-01T15:12:16.683Z,0.53
2023-02-01T15:14:52.643Z,0.47
2023-02-01T15:17:30.724Z,0.73
2023-02-01T15:20:04.860Z,0.67
2023-02-01T15:22:35.417Z,0.60
2023-02-01T15:25:07.226Z,0.70
2023-02-01T15:27:36.898Z,0.60
2023-02-01T15:30:23.176Z,0.60
2023-02-01T15:32:56.043Z,0.77
2023-02-01T15:35:48.007Z,0.67
2023-02-01T15:38:36.719Z,1.13
2023-02-01T15:41:25.409Z,1.13
2023-02-01T15:44:02.551Z,1.73
2023-02-01T15:46:48.782Z,1.33
2023-02-01T15:49:34.480Z,1.00
2023-02-01T15:52:07.188Z,0.90
2023-02-01T15:54:50.229Z,0.70
2023-02-01T15:57:38.215Z,0.60
2023-02-01T16:00:30.945Z,0.63
2023-02-01T16:03:09.779Z,0.60
2023-02-01T16:05:44.559Z,0.50
2023-02-01T16:08:27.358Z,0.67
2023-02-01T16:11:12.966Z,0.60
2023-02-01T16:13:42.424Z,0.40
2023-02-01T16:16:13.927Z,0.50
2023-02-01T16:18:45.602Z,0.50
2023-02-01T16:21:15.318Z,0.40
2023-02-01T16:23:46.301Z,0.53
2023-02-01T16:26:15.830Z,0.40
2023-02-01T16:28:45.440Z,0.50
2023-02-01T16:31:22.416Z,0.30
2023-02-01T16:33:53.290Z,0.50
2023-02-01T16:36:23.170Z,0.60
2023-02-01T16:38:54.385Z,0.50
2023-02-01T16:41:28.432Z,0.40
2023-02-01T16:43:58.401Z,0.40
2023-02-01T16:46:32.207Z,0.60
2023-02-01T16:49:03.049Z,0.43
2023-02-01T16:51:35.587Z,0.30
2023-02-01T16:54:05.575Z,0.63
2023-02-01T16:56:36.885Z,0.40
2023-02-01T16:59:06.587Z,0.43
2023-02-01T17:01:38.000Z,0.60
2023-02-01T17:04:07.755Z,0.60
2023-02-01T17:06:39.310Z,0.50
2023-02-01T17:09:10.658Z,0.40
2023-02-01T17:11:41.598Z,0.57
2023-02-01T17:14:20.991Z,0.40
2023-02-01T17:16:52.401Z,0.80
2023-02-01T17:19:25.467Z,0.60
2023-02-01T17:21:59.882Z,0.60
2023-02-01T17:24:47.525Z,0.60
2023-02-01T17:27:05.691Z,0.63
2023-02-01T17:29:35.318Z,0.70
2023-02-01T17:32:06.739Z,0.60
2023-02-01T17:34:36.389Z,0.80
2023-02-01T17:37:10.957Z,1.00
2023-02-01T17:39:55.970Z,0.60
2023-02-01T17:42:31.117Z,0.55
2023-02-01T17:45:05.260Z,0.47
2023-02-01T17:47:34.745Z,0.60
2023-02-01T17:50:04.231Z,0.87
2023-02-01T17:52:33.704Z,0.77
2023-02-01T17:55:04.693Z,0.60
2023-02-01T17:57:34.130Z,0.60
2023-02-01T18:00:04.698Z,0.50
2023-02-01T18:02:34.207Z,0.50
2023-02-01T18:05:04.865Z,0.90
2023-02-01T18:07:34.817Z,0.37
2023-02-01T18:10:04.351Z,0.87
2023-02-01T18:12:37.852Z,0.30
2023-02-01T18:15:26.263Z,0.50
2023-02-01T18:17:55.965Z,0.53
2023-02-01T18:20:28.404Z,0.50
2023-02-01T18:22:57.848Z,0.60
2023-02-01T18:25:33.389Z,0.80
2023-02-01T18:28:02.847Z,0.70
2023-02-01T18:30:36.105Z,0.87
2023-02-01T18:33:05.646Z,0.70
2023-02-01T18:35:35.158Z,0.60
2023-02-01T18:38:04.612Z,0.73
2023-02-01T18:40:38.292Z,0.90
2023-02-01T18:43:07.763Z,0.77
2023-02-01T18:45:45.535Z,0.60
2023-02-01T18:48:17.283Z,0.57
2023-02-01T18:50:48.249Z,0.60
2023-02-01T18:53:24.053Z,0.50
2023-02-01T18:55:54.896Z,0.50
2023-02-01T18:58:26.623Z,0.60
2023-02-01T19:00:58.948Z,0.70
2023-02-01T19:03:28.836Z,0.80
2023-02-01T19:05:59.663Z,0.80
2023-02-01T19:08:29.273Z,0.80
2023-02-01T19:10:58.888Z,0.63
2023-02-01T19:13:31.467Z,0.87
2023-02-01T19:16:02.765Z,0.70
2023-02-01T19:18:32.217Z,0.60
2023-02-01T19:21:07.690Z,0.57
2023-02-01T19:23:37.191Z,0.50
2023-02-01T19:26:08.256Z,0.70
2023-02-01T19:28:37.686Z,0.70
2023-02-01T19:31:09.921Z,0.70
2023-02-01T19:33:39.472Z,0.60
2023-02-01T19:36:12.196Z,1.00
2023-02-01T19:38:42.509Z,0.87
2023-02-01T19:41:11.969Z,1.00
2023-02-01T19:43:41.408Z,1.00
2023-02-01T19:46:12.862Z,0.70
2023-02-01T19:48:42.327Z,0.60
2023-02-01T19:51:12.776Z,0.77
2023-02-01T19:53:42.192Z,0.60
2023-02-01T19:56:11.912Z,0.77
2023-02-01T19:58:41.345Z,0.70
2023-02-01T20:01:10.108Z,0.90
2023-02-01T20:03:39.594Z,1.00
2023-02-01T20:06:09.920Z,1.47
2023-02-01T20:08:39.376Z,1.23
2023-02-01T20:11:09.245Z,0.87
2023-02-01T20:13:38.757Z,0.90
2023-02-01T20:16:08.559Z,1.00
2023-02-01T20:18:38.786Z,1.17
2023-02-01T20:21:08.244Z,1.20
2023-02-01T20:23:37.711Z,0.80
2023-02-01T20:26:12.215Z,0.83
2023-02-01T20:28:41.926Z,0.70
2023-02-01T20:31:11.866Z,1.33
2023-02-01T20:33:41.859Z,1.13
2023-02-01T20:36:13.048Z,0.60
2023-02-01T20:38:42.486Z,0.67
2023-02-01T20:41:12.209Z,0.73
2023-02-01T20:43:41.741Z,0.70
2023-02-01T20:46:11.176Z,0.70
2023-02-01T20:48:46.379Z,1.07
2023-02-01T20:51:18.720Z,0.87
2023-02-01T20:53:54.180Z,0.50
2023-02-01T20:56:23.167Z,0.67
2023-02-01T20:58:52.612Z,0.70
2023-02-01T21:01:22.048Z,1.10
2023-02-01T21:03:51.502Z,0.80
2023-02-01T21:06:20.944Z,0.60
2023-02-01T21:08:50.412Z,0.80
2023-02-01T21:11:19.850Z,0.50
2023-02-01T21:13:52.055Z,1.17
2023-02-01T21:16:23.478Z,1.23
2023-02-01T21:18:53.935Z,1.00
2023-02-01T21:21:23.449Z,1.00
2023-02-01T21:23:53.160Z,0.93
2023-02-01T21:26:26.750Z,0.73
2023-02-01T21:28:58.296Z,0.90
2023-02-01T21:31:27.754Z,0.93
2023-02-01T21:33:57.189Z,0.73
2023-02-01T21:36:28.280Z,0.70
2023-02-01T21:38:59.370Z,0.50
2023-02-01T21:41:46.594Z,0.88
2023-02-01T21:44:16.404Z,0.90
2023-02-01T21:46:46.414Z,0.60
2023-02-01T21:49:16.673Z,0.63
2023-02-01T21:51:46.253Z,0.50
2023-02-01T21:54:17.331Z,0.97
2023-02-01T21:56:47.118Z,0.90
2023-02-01T21:59:16.551Z,0.60
2023-02-01T22:01:46.147Z,0.50
2023-02-01T22:04:15.605Z,0.83
2023-02-01T22:06:46.674Z,0.67
2023-02-01T22:09:20.611Z,0.57
2023-02-01T22:11:51.658Z,0.57
2023-02-01T22:14:22.510Z,0.70
2023-02-01T22:16:52.537Z,0.70
2023-02-01T22:19:22.196Z,0.50
2023-02-01T22:21:51.715Z,0.83
2023-02-01T22:24:21.823Z,0.90
2023-02-01T22:26:52.205Z,0.60
2023-02-01T22:29:23.740Z,0.87
2023-02-01T22:31:53.494Z,0.83
2023-02-01T22:34:23.192Z,0.73
2023-02-01T22:36:52.646Z,0.80
2023-02-01T22:39:23.713Z,1.10
2023-02-01T22:41:53.140Z,1.30
2023-02-01T22:44:23.912Z,0.70
2023-02-01T22:46:53.316Z,0.73
2023-02-01T22:49:22.753Z,0.80
2023-02-01T22:51:52.267Z,0.90
2023-02-01T22:54:23.257Z,1.00
2023-02-01T22:56:52.753Z,0.93
2023-02-01T22:59:22.270Z,0.80
2023-02-01T23:01:51.687Z,1.23
2023-02-01T23:04:21.416Z,0.87
2023-02-01T23:06:52.147Z,0.90
2023-02-01T23:09:26.927Z,1.73
2023-02-01T23:11:56.630Z,1.10
2023-02-01T23:14:26.068Z,1.40
2023-02-01T23:16:55.582Z,1.40
2023-02-01T23:19:25.086Z,1.40
2023-02-01T23:21:54.523Z,1.77
2023-02-01T23:24:23.977Z,1.20
2023-02-01T23:26:53.473Z,1.33
2023-02-01T23:29:22.931Z,1.43
2023-02-01T23:31:52.404Z,1.20
2023-02-01T23:34:21.822Z,1.70
2023-02-01T23:36:51.246Z,1.40
2023-02-01T23:39:20.778Z,1.27
2023-02-01T23:41:50.220Z,1.00
2023-02-01T23:44:19.663Z,1.60
2023-02-01T23:46:49.168Z,1.40
2023-02-01T23:49:19.654Z,2.00
2023-02-01T23:51:50.736Z,1.40
2023-02-01T23:54:22.610Z,1.13
2023-02-01T23:56:52.130Z,1.50
2023-02-01T23:59:23.796Z,1.20
